sensor_id;sensor_type;location;lat;lon;timestamp;P1;durP1;ratioP1;P2;durP2;ratioP2
19225;SDS011;9747;48.536;12.522;2024-01-10T00:01:03;7.13;;;6.43;;
19225;SDS011;9747;48.536;12.522;2024-01-10T00:03:31;7.22;;;5.65;;
19225;SDS011;9747;48.536;12.522;2024-01-10T00:05:59;6.38;;;5.75;;
19225;SDS011;9747;48.536;12.522;2024-01-10T00:08:26;7.25;;;6.05;;
19225;SDS011;9747;48.536;12.522;2024-01-10T00:10:55;7.63;;;6.07;;
19225;SDS011;9747;48.536;12.522;2024-01-10T00:13:22;6.82;;;6.13;;
19225;SDS011;9747;48.536;12.522;2024-01-10T00:15:50;6.63;;;5.93;;
19225;SDS011;9747;48.536;12.522;2024-01-10T00:18:17;7.35;;;6.03;;
19225;SDS011;9747;48.536;12.522;2024-01-10T00:20:44;6.68;;;5.85;;
19225;SDS011;9747;48.536;12.522;2024-01-10T00:23:13;6.18;;;5.35;;
19225;SDS011;9747;48.536;12.522;2024-01-10T00:25:40;6.35;;;5.72;;
19225;SDS011;9747;48.536;12.522;2024-01-10T00:28:09;6.60;;;5.60;;
19225;SDS011;9747;48.536;12.522;2024-01-10T00:30:37;6.32;;;5.72;;
19225;SDS011;9747;48.536;12.522;2024-01-10T00:33:04;6.90;;;6.03;;
19225;SDS011;9747;48.536;12.522;2024-01-10T00:35:32;6.50;;;5.63;;
19225;SDS011;9747;48.536;12.522;2024-01-10T00:37:59;6.45;;;5.45;;
19225;SDS011;9747;48.536;12.522;2024-01-10T00:40:27;6.68;;;5.28;;
19225;SDS011;9747;48.536;12.522;2024-01-10T00:42:54;6.47;;;5.70;;
19225;SDS011;9747;48.536;12.522;2024-01-10T00:45:23;5.80;;;5.20;;
19225;SDS011;9747;48.536;12.522;2024-01-10T00:47:51;6.30;;;5.70;;
19225;SDS011;9747;48.536;12.522;2024-01-10T00:50:18;6.05;;;5.45;;
19225;SDS011;9747;48.536;12.522;2024-01-10T00:52:47;7.47;;;5.57;;
19225;SDS011;9747;48.536;12.522;2024-01-10T00:55:15;6.07;;;5.43;;
19225;SDS011;9747;48.536;12.522;2024-01-10T00:57:42;6.45;;;5.35;;
19225;SDS011;9747;48.536;12.522;2024-01-10T01:00:10;6.30;;;5.38;;
19225;SDS011;9747;48.536;12.522;2024-01-10T01:02:40;5.88;;;5.15;;
19225;SDS011;9747;48.536;12.522;2024-01-10T01:05:08;6.07;;;5.40;;
19225;SDS011;9747;48.536;12.522;2024-01-10T01:07:35;6.35;;;5.70;;
19225;SDS011;9747;48.536;12.522;2024-01-10T01:10:03;6.90;;;5.40;;
19225;SDS011;9747;48.536;12.522;2024-01-10T01:12:33;5.82;;;5.22;;
19225;SDS011;9747;48.536;12.522;2024-01-10T01:15:01;6.13;;;5.53;;
19225;SDS011;9747;48.536;12.522;2024-01-10T01:17:28;6.55;;;5.10;;
19225;SDS011;9747;48.536;12.522;2024-01-10T01:19:57;5.90;;;5.28;;
19225;SDS011;9747;48.536;12.522;2024-01-10T01:22:25;6.18;;;5.50;;
19225;SDS011;9747;48.536;12.522;2024-01-10T01:24:53;6.05;;;5.28;;
19225;SDS011;9747;48.536;12.522;2024-01-10T01:27:21;6.18;;;5.10;;
19225;SDS011;9747;48.536;12.522;2024-01-10T01:29:48;6.25;;;5.53;;
19225;SDS011;9747;48.536;12.522;2024-01-10T01:32:15;6.00;;;5.30;;
19225;SDS011;9747;48.536;12.522;2024-01-10T01:34:43;6.10;;;5.30;;
19225;SDS011;9747;48.536;12.522;2024-01-10T01:37:11;5.72;;;4.88;;
19225;SDS011;9747;48.536;12.522;2024-01-10T01:39:39;5.82;;;5.22;;
19225;SDS011;9747;48.536;12.522;2024-01-10T01:42:06;6.25;;;5.05;;
19225;SDS011;9747;48.536;12.522;2024-01-10T01:44:34;6.10;;;5.28;;
19225;SDS011;9747;48.536;12.522;2024-01-10T01:47:01;5.78;;;5.18;;
19225;SDS011;9747;48.536;12.522;2024-01-10T01:49:29;6.00;;;4.90;;
19225;SDS011;9747;48.536;12.522;2024-01-10T01:51:56;5.68;;;5.07;;
19225;SDS011;9747;48.536;12.522;2024-01-10T01:54:25;5.90;;;5.30;;
19225;SDS011;9747;48.536;12.522;2024-01-10T01:56:53;5.88;;;5.18;;
19225;SDS011;9747;48.536;12.522;2024-01-10T01:59:21;7.10;;;5.40;;
19225;SDS011;9747;48.536;12.522;2024-01-10T02:01:48;5.43;;;4.93;;
19225;SDS011;9747;48.536;12.522;2024-01-10T02:04:16;5.65;;;4.95;;
19225;SDS011;9747;48.536;12.522;2024-01-10T02:06:44;5.65;;;4.80;;
19225;SDS011;9747;48.536;12.522;2024-01-10T02:09:11;5.35;;;4.85;;
19225;SDS011;9747;48.536;12.522;2024-01-10T02:11:40;5.80;;;5.20;;
19225;SDS011;9747;48.536;12.522;2024-01-10T02:14:07;5.10;;;4.60;;
19225;SDS011;9747;48.536;12.522;2024-01-10T02:16:35;5.50;;;4.95;;
19225;SDS011;9747;48.536;12.522;2024-01-10T02:19:16;5.85;;;4.85;;
19225;SDS011;9747;48.536;12.522;2024-01-10T02:21:45;5.78;;;4.95;;
19225;SDS011;9747;48.536;12.522;2024-01-10T02:24:12;6.13;;;4.97;;
19225;SDS011;9747;48.536;12.522;2024-01-10T02:26:41;5.35;;;4.53;;
19225;SDS011;9747;48.536;12.522;2024-01-10T02:29:08;6.40;;;5.32;;
19225;SDS011;9747;48.536;12.522;2024-01-10T02:31:35;6.35;;;5.38;;
19225;SDS011;9747;48.536;12.522;2024-01-10T02:34:03;5.75;;;4.63;;
19225;SDS011;9747;48.536;12.522;2024-01-10T02:36:30;5.65;;;5.05;;
19225;SDS011;9747;48.536;12.522;2024-01-10T02:38:57;4.90;;;4.45;;
19225;SDS011;9747;48.536;12.522;2024-01-10T02:41:24;5.68;;;5.07;;
19225;SDS011;9747;48.536;12.522;2024-01-10T02:43:54;5.47;;;4.95;;
19225;SDS011;9747;48.536;12.522;2024-01-10T02:46:24;5.28;;;4.75;;
19225;SDS011;9747;48.536;12.522;2024-01-10T02:48:53;6.60;;;5.30;;
19225;SDS011;9747;48.536;12.522;2024-01-10T02:51:21;5.07;;;4.57;;
19225;SDS011;9747;48.536;12.522;2024-01-10T02:53:48;5.25;;;4.75;;
19225;SDS011;9747;48.536;12.522;2024-01-10T02:56:16;5.38;;;4.88;;
19225;SDS011;9747;48.536;12.522;2024-01-10T02:58:43;5.60;;;5.05;;
19225;SDS011;9747;48.536;12.522;2024-01-10T03:01:13;5.57;;;4.75;;
19225;SDS011;9747;48.536;12.522;2024-01-10T03:03:41;5.47;;;4.90;;
19225;SDS011;9747;48.536;12.522;2024-01-10T03:06:08;5.70;;;4.70;;
19225;SDS011;9747;48.536;12.522;2024-01-10T03:08:35;5.70;;;5.07;;
19225;SDS011;9747;48.536;12.522;2024-01-10T03:11:02;5.20;;;4.70;;
19225;SDS011;9747;48.536;12.522;2024-01-10T03:13:30;5.80;;;4.57;;
19225;SDS011;9747;48.536;12.522;2024-01-10T03:15:57;6.63;;;4.95;;
19225;SDS011;9747;48.536;12.522;2024-01-10T03:18:27;5.72;;;4.50;;
19225;SDS011;9747;48.536;12.522;2024-01-10T03:20:54;5.18;;;4.68;;
19225;SDS011;9747;48.536;12.522;2024-01-10T03:23:22;5.28;;;4.72;;
19225;SDS011;9747;48.536;12.522;2024-01-10T03:25:49;5.32;;;4.78;;
19225;SDS011;9747;48.536;12.522;2024-01-10T03:28:16;5.07;;;4.40;;
19225;SDS011;9747;48.536;12.522;2024-01-10T03:30:44;5.38;;;4.85;;
19225;SDS011;9747;48.536;12.522;2024-01-10T03:33:11;5.03;;;4.32;;
19225;SDS011;9747;48.536;12.522;2024-01-10T03:35:40;5.07;;;4.57;;
19225;SDS011;9747;48.536;12.522;2024-01-10T03:38:07;5.60;;;4.78;;
19225;SDS011;9747;48.536;12.522;2024-01-10T03:40:35;5.85;;;4.95;;
19225;SDS011;9747;48.536;12.522;2024-01-10T03:43:02;5.72;;;4.97;;
19225;SDS011;9747;48.536;12.522;2024-01-10T03:45:30;5.75;;;4.70;;
19225;SDS011;9747;48.536;12.522;2024-01-10T03:47:57;5.70;;;5.00;;
19225;SDS011;9747;48.536;12.522;2024-01-10T03:50:24;5.22;;;4.50;;
19225;SDS011;9747;48.536;12.522;2024-01-10T03:52:53;4.90;;;4.40;;
19225;SDS011;9747;48.536;12.522;2024-01-10T03:55:20;5.50;;;4.45;;
19225;SDS011;9747;48.536;12.522;2024-01-10T03:57:47;5.72;;;4.70;;
19225;SDS011;9747;48.536;12.522;2024-01-10T04:00:14;5.53;;;4.93;;
19225;SDS011;9747;48.536;12.522;2024-01-10T04:02:43;5.25;;;4.75;;
19225;SDS011;9747;48.536;12.522;2024-01-10T04:05:10;6.60;;;4.90;;
19225;SDS011;9747;48.536;12.522;2024-01-10T04:07:39;5.07;;;4.25;;
19225;SDS011;9747;48.536;12.522;2024-01-10T04:10:09;5.45;;;4.75;;
19225;SDS011;9747;48.536;12.522;2024-01-10T04:12:39;5.13;;;4.60;;
19225;SDS011;9747;48.536;12.522;2024-01-10T04:15:06;5.03;;;4.45;;
19225;SDS011;9747;48.536;12.522;2024-01-10T04:17:34;4.93;;;4.43;;
19225;SDS011;9747;48.536;12.522;2024-01-10T04:20:02;5.47;;;4.82;;
19225;SDS011;9747;48.536;12.522;2024-01-10T04:22:30;6.60;;;4.78;;
19225;SDS011;9747;48.536;12.522;2024-01-10T04:24:58;6.75;;;5.03;;
19225;SDS011;9747;48.536;12.522;2024-01-10T04:27:28;4.80;;;4.40;;
19225;SDS011;9747;48.536;12.522;2024-01-10T04:29:55;5.25;;;4.70;;
19225;SDS011;9747;48.536;12.522;2024-01-10T04:32:22;5.63;;;4.70;;
19225;SDS011;9747;48.536;12.522;2024-01-10T04:34:50;6.45;;;4.78;;
19225;SDS011;9747;48.536;12.522;2024-01-10T04:37:17;5.03;;;4.22;;
19225;SDS011;9747;48.536;12.522;2024-01-10T04:39:45;5.50;;;4.90;;
19225;SDS011;9747;48.536;12.522;2024-01-10T04:42:12;4.90;;;4.40;;
19225;SDS011;9747;48.536;12.522;2024-01-10T04:44:41;5.28;;;4.78;;
19225;SDS011;9747;48.536;12.522;2024-01-10T04:47:08;5.13;;;4.50;;
19225;SDS011;9747;48.536;12.522;2024-01-10T04:49:36;5.75;;;4.80;;
19225;SDS011;9747;48.536;12.522;2024-01-10T04:52:03;4.32;;;3.88;;
19225;SDS011;9747;48.536;12.522;2024-01-10T04:54:31;5.22;;;4.32;;
19225;SDS011;9747;48.536;12.522;2024-01-10T04:56:59;4.93;;;4.40;;
19225;SDS011;9747;48.536;12.522;2024-01-10T04:59:26;5.57;;;4.55;;
19225;SDS011;9747;48.536;12.522;2024-01-10T05:01:55;4.95;;;4.20;;
19225;SDS011;9747;48.536;12.522;2024-01-10T05:04:22;6.88;;;4.20;;
19225;SDS011;9747;48.536;12.522;2024-01-10T05:06:49;5.88;;;4.50;;
19225;SDS011;9747;48.536;12.522;2024-01-10T05:09:17;6.47;;;4.85;;
19225;SDS011;9747;48.536;12.522;2024-01-10T05:11:44;6.47;;;4.82;;
19225;SDS011;9747;48.536;12.522;2024-01-10T05:14:15;6.93;;;4.65;;
19225;SDS011;9747;48.536;12.522;2024-01-10T05:16:44;5.18;;;4.55;;
19225;SDS011;9747;48.536;12.522;2024-01-10T05:19:14;7.55;;;5.28;;
19225;SDS011;9747;48.536;12.522;2024-01-10T05:21:41;8.18;;;5.05;;
19225;SDS011;9747;48.536;12.522;2024-01-10T05:24:08;8.07;;;5.07;;
19225;SDS011;9747;48.536;12.522;2024-01-10T05:26:36;9.65;;;5.22;;
19225;SDS011;9747;48.536;12.522;2024-01-10T05:29:03;6.97;;;5.18;;
19225;SDS011;9747;48.536;12.522;2024-01-10T05:31:30;7.70;;;4.70;;
19225;SDS011;9747;48.536;12.522;2024-01-10T05:33:58;9.52;;;4.68;;
19225;SDS011;9747;48.536;12.522;2024-01-10T05:36:26;6.60;;;4.90;;
19225;SDS011;9747;48.536;12.522;2024-01-10T05:38:53;9.45;;;5.05;;
19225;SDS011;9747;48.536;12.522;2024-01-10T05:41:21;7.65;;;4.65;;
19225;SDS011;9747;48.536;12.522;2024-01-10T05:43:48;7.47;;;4.82;;
19225;SDS011;9747;48.536;12.522;2024-01-10T05:46:15;6.55;;;4.90;;
19225;SDS011;9747;48.536;12.522;2024-01-10T05:48:42;6.43;;;4.72;;
19225;SDS011;9747;48.536;12.522;2024-01-10T05:51:11;6.38;;;4.63;;
19225;SDS011;9747;48.536;12.522;2024-01-10T05:53:40;6.35;;;5.00;;
19225;SDS011;9747;48.536;12.522;2024-01-10T05:56:07;6.38;;;4.93;;
19225;SDS011;9747;48.536;12.522;2024-01-10T05:58:34;6.40;;;5.35;;
19225;SDS011;9747;48.536;12.522;2024-01-10T06:01:02;5.55;;;4.72;;
19225;SDS011;9747;48.536;12.522;2024-01-10T06:03:29;6.85;;;5.32;;
19225;SDS011;9747;48.536;12.522;2024-01-10T06:05:57;8.40;;;5.40;;
19225;SDS011;9747;48.536;12.522;2024-01-10T06:08:24;5.68;;;4.95;;
19225;SDS011;9747;48.536;12.522;2024-01-10T06:10:55;5.78;;;5.13;;
19225;SDS011;9747;48.536;12.522;2024-01-10T06:13:22;6.30;;;5.20;;
19225;SDS011;9747;48.536;12.522;2024-01-10T06:15:49;8.23;;;5.28;;
19225;SDS011;9747;48.536;12.522;2024-01-10T06:18:16;7.85;;;5.45;;
19225;SDS011;9747;48.536;12.522;2024-01-10T06:20:44;5.80;;;5.00;;
19225;SDS011;9747;48.536;12.522;2024-01-10T06:23:12;6.43;;;5.15;;
19225;SDS011;9747;48.536;12.522;2024-01-10T06:25:39;7.32;;;5.55;;
19225;SDS011;9747;48.536;12.522;2024-01-10T06:28:08;7.30;;;5.47;;
19225;SDS011;9747;48.536;12.522;2024-01-10T06:30:35;7.60;;;6.07;;
19225;SDS011;9747;48.536;12.522;2024-01-10T06:33:03;7.68;;;5.75;;
19225;SDS011;9747;48.536;12.522;2024-01-10T06:35:32;7.25;;;5.35;;
19225;SDS011;9747;48.536;12.522;2024-01-10T06:37:59;7.10;;;5.57;;
19225;SDS011;9747;48.536;12.522;2024-01-10T06:40:28;7.15;;;5.32;;
19225;SDS011;9747;48.536;12.522;2024-01-10T06:42:56;7.05;;;5.38;;
19225;SDS011;9747;48.536;12.522;2024-01-10T06:45:25;8.23;;;5.50;;
19225;SDS011;9747;48.536;12.522;2024-01-10T06:47:53;7.30;;;5.30;;
19225;SDS011;9747;48.536;12.522;2024-01-10T06:50:20;5.82;;;5.22;;
19225;SDS011;9747;48.536;12.522;2024-01-10T06:52:49;7.25;;;5.72;;
19225;SDS011;9747;48.536;12.522;2024-01-10T06:55:16;6.70;;;5.30;;
19225;SDS011;9747;48.536;12.522;2024-01-10T06:57:44;8.13;;;5.47;;
19225;SDS011;9747;48.536;12.522;2024-01-10T07:00:14;7.38;;;5.63;;
19225;SDS011;9747;48.536;12.522;2024-01-10T07:02:44;7.38;;;5.63;;
19225;SDS011;9747;48.536;12.522;2024-01-10T07:05:11;7.00;;;5.30;;
19225;SDS011;9747;48.536;12.522;2024-01-10T07:07:39;5.95;;;5.32;;
19225;SDS011;9747;48.536;12.522;2024-01-10T07:10:07;7.50;;;5.40;;
19225;SDS011;9747;48.536;12.522;2024-01-10T07:12:35;7.00;;;5.40;;
19225;SDS011;9747;48.536;12.522;2024-01-10T07:15:03;8.00;;;5.35;;
19225;SDS011;9747;48.536;12.522;2024-01-10T07:17:32;6.47;;;5.53;;
19225;SDS011;9747;48.536;12.522;2024-01-10T07:20:01;6.93;;;5.70;;
19225;SDS011;9747;48.536;12.522;2024-01-10T07:22:30;6.30;;;5.32;;
19225;SDS011;9747;48.536;12.522;2024-01-10T07:24:58;6.90;;;5.47;;
19225;SDS011;9747;48.536;12.522;2024-01-10T07:27:25;8.02;;;5.70;;
19225;SDS011;9747;48.536;12.522;2024-01-10T07:29:52;6.25;;;5.15;;
19225;SDS011;9747;48.536;12.522;2024-01-10T07:32:21;6.20;;;5.57;;
19225;SDS011;9747;48.536;12.522;2024-01-10T07:34:48;8.85;;;5.88;;
19225;SDS011;9747;48.536;12.522;2024-01-10T07:37:17;7.05;;;5.47;;
19225;SDS011;9747;48.536;12.522;2024-01-10T07:39:46;6.65;;;5.50;;
19225;SDS011;9747;48.536;12.522;2024-01-10T07:42:13;7.05;;;5.80;;
19225;SDS011;9747;48.536;12.522;2024-01-10T07:44:43;6.38;;;5.50;;
19225;SDS011;9747;48.536;12.522;2024-01-10T07:47:11;6.30;;;5.50;;
19225;SDS011;9747;48.536;12.522;2024-01-10T07:49:38;6.68;;;5.40;;
19225;SDS011;9747;48.536;12.522;2024-01-10T07:52:06;6.75;;;5.50;;
19225;SDS011;9747;48.536;12.522;2024-01-10T07:54:34;8.07;;;5.55;;
19225;SDS011;9747;48.536;12.522;2024-01-10T07:57:02;6.63;;;5.63;;
19225;SDS011;9747;48.536;12.522;2024-01-10T07:59:31;6.43;;;5.05;;
19225;SDS011;9747;48.536;12.522;2024-01-10T08:01:59;6.82;;;5.90;;
19225;SDS011;9747;48.536;12.522;2024-01-10T08:04:27;6.78;;;5.63;;
19225;SDS011;9747;48.536;12.522;2024-01-10T08:06:55;7.05;;;6.03;;
19225;SDS011;9747;48.536;12.522;2024-01-10T08:09:22;8.30;;;5.90;;
19225;SDS011;9747;48.536;12.522;2024-01-10T08:11:51;7.00;;;6.13;;
19225;SDS011;9747;48.536;12.522;2024-01-10T08:14:19;7.63;;;6.35;;
19225;SDS011;9747;48.536;12.522;2024-01-10T08:16:46;7.13;;;6.10;;
19225;SDS011;9747;48.536;12.522;2024-01-10T08:19:13;8.20;;;6.72;;
19225;SDS011;9747;48.536;12.522;2024-01-10T08:21:41;7.13;;;6.22;;
19225;SDS011;9747;48.536;12.522;2024-01-10T08:24:08;6.90;;;6.05;;
19225;SDS011;9747;48.536;12.522;2024-01-10T08:26:35;8.18;;;6.57;;
19225;SDS011;9747;48.536;12.522;2024-01-10T08:29:04;8.80;;;6.57;;
19225;SDS011;9747;48.536;12.522;2024-01-10T08:31:32;8.20;;;6.68;;
19225;SDS011;9747;48.536;12.522;2024-01-10T08:33:59;8.27;;;6.45;;
19225;SDS011;9747;48.536;12.522;2024-01-10T08:36:28;7.88;;;6.72;;
19225;SDS011;9747;48.536;12.522;2024-01-10T08:38:55;8.30;;;6.20;;
19225;SDS011;9747;48.536;12.522;2024-01-10T08:41:22;9.65;;;6.95;;
19225;SDS011;9747;48.536;12.522;2024-01-10T08:43:50;7.75;;;6.55;;
19225;SDS011;9747;48.536;12.522;2024-01-10T08:46:19;7.97;;;6.68;;
19225;SDS011;9747;48.536;12.522;2024-01-10T08:48:46;8.85;;;6.75;;
19225;SDS011;9747;48.536;12.522;2024-01-10T08:51:14;8.68;;;6.88;;
19225;SDS011;9747;48.536;12.522;2024-01-10T08:53:42;8.45;;;7.10;;
19225;SDS011;9747;48.536;12.522;2024-01-10T08:56:10;7.38;;;6.55;;
19225;SDS011;9747;48.536;12.522;2024-01-10T08:58:37;9.13;;;6.80;;
19225;SDS011;9747;48.536;12.522;2024-01-10T09:01:04;8.60;;;7.13;;
19225;SDS011;9747;48.536;12.522;2024-01-10T09:03:34;7.97;;;6.65;;
19225;SDS011;9747;48.536;12.522;2024-01-10T09:06:02;7.72;;;6.80;;
19225;SDS011;9747;48.536;12.522;2024-01-10T09:08:32;8.18;;;6.97;;
19225;SDS011;9747;48.536;12.522;2024-01-10T09:11:00;9.13;;;7.20;;
19225;SDS011;9747;48.536;12.522;2024-01-10T09:13:27;7.68;;;6.68;;
19225;SDS011;9747;48.536;12.522;2024-01-10T09:15:55;9.15;;;7.32;;
19225;SDS011;9747;48.536;12.522;2024-01-10T09:18:22;9.23;;;7.15;;
19225;SDS011;9747;48.536;12.522;2024-01-10T09:20:51;9.63;;;7.38;;
19225;SDS011;9747;48.536;12.522;2024-01-10T09:23:18;9.18;;;7.28;;
19225;SDS011;9747;48.536;12.522;2024-01-10T09:25:46;8.90;;;7.55;;
19225;SDS011;9747;48.536;12.522;2024-01-10T09:28:13;8.48;;;7.15;;
19225;SDS011;9747;48.536;12.522;2024-01-10T09:30:41;8.60;;;7.13;;
19225;SDS011;9747;48.536;12.522;2024-01-10T09:33:08;8.13;;;7.13;;
19225;SDS011;9747;48.536;12.522;2024-01-10T09:35:36;8.18;;;6.95;;
19225;SDS011;9747;48.536;12.522;2024-01-10T09:38:04;8.75;;;7.28;;
19225;SDS011;9747;48.536;12.522;2024-01-10T09:40:32;9.35;;;7.72;;
19225;SDS011;9747;48.536;12.522;2024-01-10T09:42:59;9.02;;;7.78;;
19225;SDS011;9747;48.536;12.522;2024-01-10T09:45:27;9.38;;;7.78;;
19225;SDS011;9747;48.536;12.522;2024-01-10T09:47:56;9.88;;;8.18;;
19225;SDS011;9747;48.536;12.522;2024-01-10T09:50:23;11.80;;;8.60;;
19225;SDS011;9747;48.536;12.522;2024-01-10T09:52:51;11.98;;;8.40;;
19225;SDS011;9747;48.536;12.522;2024-01-10T09:55:22;10.70;;;8.20;;
19225;SDS011;9747;48.536;12.522;2024-01-10T09:57:50;10.57;;;7.85;;
19225;SDS011;9747;48.536;12.522;2024-01-10T10:00:18;10.70;;;8.40;;
19225;SDS011;9747;48.536;12.522;2024-01-10T10:02:45;11.63;;;8.30;;
19225;SDS011;9747;48.536;12.522;2024-01-10T10:05:14;9.93;;;8.15;;
19225;SDS011;9747;48.536;12.522;2024-01-10T10:07:43;10.35;;;8.07;;
19225;SDS011;9747;48.536;12.522;2024-01-10T10:10:12;10.57;;;8.50;;
19225;SDS011;9747;48.536;12.522;2024-01-10T10:12:42;10.10;;;8.05;;
19225;SDS011;9747;48.536;12.522;2024-01-10T10:15:12;12.00;;;8.35;;
19225;SDS011;9747;48.536;12.522;2024-01-10T10:17:41;10.77;;;8.77;;
19225;SDS011;9747;48.536;12.522;2024-01-10T10:20:14;10.23;;;7.80;;
19225;SDS011;9747;48.536;12.522;2024-01-10T10:25:44;11.25;;;8.40;;
19225;SDS011;9747;48.536;12.522;2024-01-10T10:28:13;11.93;;;8.73;;
19225;SDS011;9747;48.536;12.522;2024-01-10T10:30:43;9.80;;;7.82;;
19225;SDS011;9747;48.536;12.522;2024-01-10T10:33:13;10.75;;;8.80;;
19225;SDS011;9747;48.536;12.522;2024-01-10T10:35:41;10.55;;;8.23;;
19225;SDS011;9747;48.536;12.522;2024-01-10T10:38:10;12.30;;;8.95;;
19225;SDS011;9747;48.536;12.522;2024-01-10T10:40:38;13.07;;;9.27;;
19225;SDS011;9747;48.536;12.522;2024-01-10T10:43:05;12.10;;;9.10;;
19225;SDS011;9747;48.536;12.522;2024-01-10T10:45:39;11.10;;;8.68;;
19225;SDS011;9747;48.536;12.522;2024-01-10T10:48:08;10.73;;;8.20;;
19225;SDS011;9747;48.536;12.522;2024-01-10T10:50:38;12.68;;;9.32;;
19225;SDS011;9747;48.536;12.522;2024-01-10T10:53:06;12.80;;;9.13;;
19225;SDS011;9747;48.536;12.522;2024-01-10T10:55:33;11.65;;;8.60;;
19225;SDS011;9747;48.536;12.522;2024-01-10T10:58:02;10.70;;;8.85;;
19225;SDS011;9747;48.536;12.522;2024-01-10T11:00:31;10.52;;;9.05;;
19225;SDS011;9747;48.536;12.522;2024-01-10T11:03:00;12.15;;;8.98;;
19225;SDS011;9747;48.536;12.522;2024-01-10T11:05:30;13.68;;;9.15;;
19225;SDS011;9747;48.536;12.522;2024-01-10T11:07:58;13.82;;;9.43;;
19225;SDS011;9747;48.536;12.522;2024-01-10T11:10:32;10.68;;;8.43;;
19225;SDS011;9747;48.536;12.522;2024-01-10T11:13:03;12.75;;;9.00;;
19225;SDS011;9747;48.536;12.522;2024-01-10T11:15:57;13.13;;;9.80;;
19225;SDS011;9747;48.536;12.522;2024-01-10T11:19:03;12.30;;;9.43;;
19225;SDS011;9747;48.536;12.522;2024-01-10T11:21:49;10.57;;;8.73;;
19225;SDS011;9747;48.536;12.522;2024-01-10T11:24:23;12.98;;;9.20;;
19225;SDS011;9747;48.536;12.522;2024-01-10T11:26:52;12.60;;;8.95;;
19225;SDS011;9747;48.536;12.522;2024-01-10T11:29:36;11.85;;;8.82;;
19225;SDS011;9747;48.536;12.522;2024-01-10T11:32:05;11.52;;;8.88;;
19225;SDS011;9747;48.536;12.522;2024-01-10T11:34:36;13.27;;;8.95;;
19225;SDS011;9747;48.536;12.522;2024-01-10T11:37:10;13.05;;;9.45;;
19225;SDS011;9747;48.536;12.522;2024-01-10T11:39:41;12.45;;;9.50;;
19225;SDS011;9747;48.536;12.522;2024-01-10T11:42:09;11.07;;;8.90;;
19225;SDS011;9747;48.536;12.522;2024-01-10T11:44:46;12.95;;;9.73;;
19225;SDS011;9747;48.536;12.522;2024-01-10T11:47:14;9.70;;;8.38;;
19225;SDS011;9747;48.536;12.522;2024-01-10T11:49:54;11.43;;;8.60;;
19225;SDS011;9747;48.536;12.522;2024-01-10T11:52:23;12.13;;;9.15;;
19225;SDS011;9747;48.536;12.522;2024-01-10T11:54:58;11.00;;;8.20;;
19225;SDS011;9747;48.536;12.522;2024-01-10T11:57:25;11.50;;;8.82;;
19225;SDS011;9747;48.536;12.522;2024-01-10T11:59:57;11.90;;;8.90;;
19225;SDS011;9747;48.536;12.522;2024-01-10T12:02:25;10.65;;;8.77;;
19225;SDS011;9747;48.536;12.522;2024-01-10T12:04:54;11.85;;;8.90;;
19225;SDS011;9747;48.536;12.522;2024-01-10T12:07:22;10.32;;;8.65;;
19225;SDS011;9747;48.536;12.522;2024-01-10T12:09:50;11.68;;;8.75;;
19225;SDS011;9747;48.536;12.522;2024-01-10T12:12:17;11.02;;;8.48;;
19225;SDS011;9747;48.536;12.522;2024-01-10T12:14:45;10.98;;;9.05;;
19225;SDS011;9747;48.536;12.522;2024-01-10T12:17:12;10.68;;;8.40;;
19225;SDS011;9747;48.536;12.522;2024-01-10T12:19:40;12.27;;;9.27;;
19225;SDS011;9747;48.536;12.522;2024-01-10T12:22:11;11.30;;;8.90;;
19225;SDS011;9747;48.536;12.522;2024-01-10T12:24:42;11.43;;;8.68;;
19225;SDS011;9747;48.536;12.522;2024-01-10T12:27:15;11.70;;;8.88;;
19225;SDS011;9747;48.536;12.522;2024-01-10T12:29:47;11.10;;;8.80;;
19225;SDS011;9747;48.536;12.522;2024-01-10T12:32:17;11.40;;;9.07;;
19225;SDS011;9747;48.536;12.522;2024-01-10T12:34:46;12.05;;;9.00;;
19225;SDS011;9747;48.536;12.522;2024-01-10T12:37:14;10.95;;;9.00;;
19225;SDS011;9747;48.536;12.522;2024-01-10T12:39:43;10.75;;;8.45;;
19225;SDS011;9747;48.536;12.522;2024-01-10T12:42:10;12.80;;;9.02;;
19225;SDS011;9747;48.536;12.522;2024-01-10T12:44:38;10.65;;;9.02;;
19225;SDS011;9747;48.536;12.522;2024-01-10T12:47:17;10.93;;;8.60;;
19225;SDS011;9747;48.536;12.522;2024-01-10T12:49:46;11.13;;;8.45;;
19225;SDS011;9747;48.536;12.522;2024-01-10T12:52:15;10.80;;;8.57;;
19225;SDS011;9747;48.536;12.522;2024-01-10T12:54:44;10.95;;;8.45;;
19225;SDS011;9747;48.536;12.522;2024-01-10T12:57:12;10.85;;;8.75;;
19225;SDS011;9747;48.536;12.522;2024-01-10T12:59:39;8.93;;;8.02;;
19225;SDS011;9747;48.536;12.522;2024-01-10T13:02:07;10.38;;;8.48;;
19225;SDS011;9747;48.536;12.522;2024-01-10T13:04:34;10.80;;;8.43;;
19225;SDS011;9747;48.536;12.522;2024-01-10T13:07:02;11.25;;;8.48;;
19225;SDS011;9747;48.536;12.522;2024-01-10T13:09:31;10.98;;;8.80;;
19225;SDS011;9747;48.536;12.522;2024-01-10T13:11:58;9.07;;;7.97;;
19225;SDS011;9747;48.536;12.522;2024-01-10T13:14:25;9.63;;;7.90;;
19225;SDS011;9747;48.536;12.522;2024-01-10T13:16:55;10.50;;;8.07;;
19225;SDS011;9747;48.536;12.522;2024-01-10T13:19:22;10.18;;;8.25;;
19225;SDS011;9747;48.536;12.522;2024-01-10T13:21:51;9.68;;;8.13;;
19225;SDS011;9747;48.536;12.522;2024-01-10T13:24:18;10.88;;;8.25;;
19225;SDS011;9747;48.536;12.522;2024-01-10T13:26:47;10.75;;;8.40;;
19225;SDS011;9747;48.536;12.522;2024-01-10T13:29:15;11.10;;;8.35;;
19225;SDS011;9747;48.536;12.522;2024-01-10T13:31:42;10.55;;;7.70;;
19225;SDS011;9747;48.536;12.522;2024-01-10T13:34:10;9.90;;;8.10;;
19225;SDS011;9747;48.536;12.522;2024-01-10T13:36:37;9.98;;;7.57;;
19225;SDS011;9747;48.536;12.522;2024-01-10T13:39:05;9.77;;;7.85;;
19225;SDS011;9747;48.536;12.522;2024-01-10T13:41:33;8.48;;;6.88;;
19225;SDS011;9747;48.536;12.522;2024-01-10T13:44:02;11.07;;;7.43;;
19225;SDS011;9747;48.536;12.522;2024-01-10T13:46:30;9.70;;;6.72;;
19225;SDS011;9747;48.536;12.522;2024-01-10T13:48:59;10.23;;;7.47;;
19225;SDS011;9747;48.536;12.522;2024-01-10T13:51:27;15.75;;;7.47;;
19225;SDS011;9747;48.536;12.522;2024-01-10T13:53:54;10.50;;;7.25;;
19225;SDS011;9747;48.536;12.522;2024-01-10T13:56:22;9.27;;;7.15;;
19225;SDS011;9747;48.536;12.522;2024-01-10T13:58:50;12.98;;;7.40;;
19225;SDS011;9747;48.536;12.522;2024-01-10T14:01:18;12.90;;;7.70;;
19225;SDS011;9747;48.536;12.522;2024-01-10T14:03:46;12.50;;;8.07;;
19225;SDS011;9747;48.536;12.522;2024-01-10T14:06:13;27.67;;;18.17;;
19225;SDS011;9747;48.536;12.522;2024-01-10T14:08:40;28.85;;;19.13;;
19225;SDS011;9747;48.536;12.522;2024-01-10T14:11:10;19.60;;;14.93;;
19225;SDS011;9747;48.536;12.522;2024-01-10T14:13:38;18.05;;;12.55;;
19225;SDS011;9747;48.536;12.522;2024-01-10T14:16:06;16.52;;;11.90;;
19225;SDS011;9747;48.536;12.522;2024-01-10T14:18:37;18.05;;;11.65;;
19225;SDS011;9747;48.536;12.522;2024-01-10T14:21:04;16.75;;;10.73;;
19225;SDS011;9747;48.536;12.522;2024-01-10T14:23:32;15.55;;;10.82;;
19225;SDS011;9747;48.536;12.522;2024-01-10T14:26:00;13.98;;;9.90;;
19225;SDS011;9747;48.536;12.522;2024-01-10T14:28:30;14.57;;;8.90;;
19225;SDS011;9747;48.536;12.522;2024-01-10T14:30:58;14.07;;;9.40;;
19225;SDS011;9747;48.536;12.522;2024-01-10T14:33:26;14.85;;;8.88;;
19225;SDS011;9747;48.536;12.522;2024-01-10T14:35:55;14.88;;;7.97;;
19225;SDS011;9747;48.536;12.522;2024-01-10T14:38:22;14.80;;;9.20;;
19225;SDS011;9747;48.536;12.522;2024-01-10T14:40:49;12.13;;;8.23;;
19225;SDS011;9747;48.536;12.522;2024-01-10T14:43:17;14.73;;;9.10;;
19225;SDS011;9747;48.536;12.522;2024-01-10T14:45:45;11.27;;;8.13;;
19225;SDS011;9747;48.536;12.522;2024-01-10T14:48:13;12.45;;;8.57;;
19225;SDS011;9747;48.536;12.522;2024-01-10T14:50:41;21.08;;;15.30;;
19225;SDS011;9747;48.536;12.522;2024-01-10T14:53:09;16.05;;;11.05;;